Edwards Air Force Base Edwards US
ICAO: KEDW
IATA: EDW
Category: Large
Scheduled Services: No

Elevation: 2312 ft
TransAlt. 18000 ft.

Airport Communications:
SPORT APP/DEP:132.75
ATIS:26.99
GND:121.8
NASA FLT OPS:135.825
PMSV METRO:34.24
COMD POST:30.4
PTD:37.22
TWR:120.7

KEDW Zoom In..

Runways:

(A) RW 04L length 12000 ft width 200 ft
---- / hdg 43

(B) RW 04R length 15024 ft width 300 ft
---- / hdg 43

(C) RW 22L length 15024 ft width 300 ft
ILS 110.10 / hdg 223

(D) RW 22R length 12000 ft width 200 ft
---- / hdg 223

Location; KEDW
Day. 23 / Time. 02.58 Zulu
* Altimeter: 30.00
* Temperature: 33° c. 91.4°f.
* Wind from: 230° Speed 16 kn with Gusts up to 22 kn.
Dewpoint: 10° c.
Visibility: 10 Statute Miles.
Clouds: Clear (automated report).

KEDW 230258Z AUTO 23016G22KT 10SM CLR 33/10 A3000 RMK AO2 PK WND 24027/0159 SLP131 T03310098 53010


Wind From 230°
Speed 16 kn.

 
 
jpsmedia.com for Web Design worldairports.se 2018   terms of use